»·PEaware :: N944XS KBLH-KSAN

N944XS :: KBLH-KSAN

FLIGHT INFORMATION

Flight Status: Arrived
Operator: Privately registered:
United States
More flights under this callsign
Pilot: Ryan E. (18395)
Aircraft: MITSUBISHI MU-2 MARQUISE
(MU2)
More flights by this aircraft type
Origin: KBLH Blythe
United States
Destination: KSAN San Diego Intl-Lindbergh
United States
More flights between these airports :: More routes between these airports
Route: +BLH TRM V514 MZB
File this flight plan on PilotEdge
Remarks:
Altitude:
(Current/Filed)
12,000ft
Speed:
(Current/Filed)
281kts
Departed: 03-Mar-18 12:19 PM
Arrived: 03-Mar-18 01:06 PM
Distance/Time
Traveled:
135nm/0:47
Distance/Time
To Go:
Arrived

Flight Plot

Page will automatically refresh every two minutes.

Flight plan parsing failed; only flown route is shown


Map Options




Map Legend


Flown Route
Filed Route
Departure Airport
Arrival Airport
Navaid (VOR, NDB)
Fix

Horizontal Profiles

Position Reports

Time Latitude Longitude Heading Altitude Ground
Speed
03-Mar-18 12:02 33.614456 -114.712285 269 393ft 0kts
03-Mar-18 12:03 33.614456 -114.712285 269 393ft 0kts
03-Mar-18 12:04 33.614456 -114.712285 269 393ft 0kts
03-Mar-18 12:05 33.614456 -114.712285 269 393ft 0kts
03-Mar-18 12:06 33.614456 -114.712286 268 393ft 0kts
03-Mar-18 12:07 33.614456 -114.712290 270 393ft 1kts
03-Mar-18 12:08 33.614457 -114.712347 269 393ft 0kts
03-Mar-18 12:09 33.614457 -114.712347 268 393ft 0kts
03-Mar-18 12:10 33.614456 -114.712347 268 393ft 0kts
03-Mar-18 12:11 33.614456 -114.712347 268 393ft 0kts
03-Mar-18 12:12 33.614456 -114.712347 268 393ft 0kts
03-Mar-18 12:13 33.614456 -114.712347 268 393ft 0kts
03-Mar-18 12:14 33.614456 -114.712347 268 393ft 0kts
03-Mar-18 12:15 33.614456 -114.712347 268 393ft 0kts
03-Mar-18 12:16 33.614457 -114.712347 268 393ft 0kts
03-Mar-18 12:17 33.614457 -114.712347 268 393ft 0kts
03-Mar-18 12:18 33.614457 -114.712347 268 393ft 0kts
03-Mar-18 12:19 33.614457 -114.712347 268 393ft 0kts
03-Mar-18 12:20 33.614456 -114.712347 268 393ft 0kts
03-Mar-18 12:21 33.614456 -114.712347 268 393ft 0kts
03-Mar-18 12:22 33.614457 -114.712347 269 393ft 0kts
03-Mar-18 12:23 33.614990 -114.711215 89 394ft 13kts
03-Mar-18 12:24 33.615216 -114.706785 58 394ft 9kts
03-Mar-18 12:25 33.615491 -114.706323 40 394ft 0kts
03-Mar-18 12:26 33.616393 -114.711109 266 394ft 106kts
03-Mar-18 12:27 33.616977 -114.752613 229 2653ft 147kts
03-Mar-18 12:28 33.600334 -114.791726 258 4986ft 176kts
03-Mar-18 12:29 33.599067 -114.860796 267 5036ft 250kts
03-Mar-18 12:30 33.600976 -114.937227 267 5064ft 243kts
03-Mar-18 12:31 33.602757 -115.004289 267 6950ft 226kts
03-Mar-18 12:32 33.604533 -115.072218 267 8903ft 226kts
03-Mar-18 12:33 33.606290 -115.140994 267 10870ft 226kts
03-Mar-18 12:34 33.607925 -115.207417 268 12029ft 249kts
03-Mar-18 12:35 33.609917 -115.288126 268 12023ft 273kts
03-Mar-18 12:36 33.612106 -115.378513 268 12013ft 270kts
03-Mar-18 12:37 33.614116 -115.465059 268 12007ft 268kts
03-Mar-18 12:38 33.615850 -115.541915 268 12007ft 268kts
03-Mar-18 12:39 33.616812 -115.585454 268 12007ft 268kts
03-Mar-18 12:40 33.616812 -115.585454 268 12007ft 268kts
03-Mar-18 12:41 33.620811 -115.774808 268 12012ft 268kts
03-Mar-18 12:42 33.622538 -115.861148 268 12011ft 268kts
03-Mar-18 12:43 33.624153 -115.944719 268 12010ft 268kts
03-Mar-18 12:44 33.625748 -116.030192 268 12010ft 268kts
03-Mar-18 12:45 33.627150 -116.108067 268 12010ft 268kts
03-Mar-18 12:46 33.601974 -116.181599 220 12009ft 265kts
03-Mar-18 12:47 33.543322 -116.234529 218 11996ft 266kts
03-Mar-18 12:48 33.483626 -116.286915 218 11996ft 266kts
03-Mar-18 12:49 33.427640 -116.335901 218 11995ft 266kts
03-Mar-18 12:50 33.370306 -116.385983 218 11995ft 266kts
03-Mar-18 12:51 33.312588 -116.436308 218 12004ft 265kts
03-Mar-18 12:52 33.256661 -116.484987 218 12033ft 264kts
03-Mar-18 12:53 33.230535 -116.507702 218 12050ft 264kts
03-Mar-18 12:54 33.164394 -116.565129 218 12082ft 263kts
03-Mar-18 12:55 33.163897 -116.565561 218 12083ft 263kts
03-Mar-18 12:56 33.059385 -116.594327 190 12093ft 273kts
03-Mar-18 12:57 32.989111 -116.601622 190 11982ft 277kts
03-Mar-18 12:58 32.989111 -116.601622 190 11982ft 277kts
03-Mar-18 12:59 32.989111 -116.601622 190 11982ft 277kts
03-Mar-18 13:00 32.989111 -116.601622 190 11982ft 277kts
03-Mar-18 13:01 32.989111 -116.601622 190 11982ft 277kts
03-Mar-18 13:02 32.624868 -116.630831 188 8989ft 258kts
03-Mar-18 13:03 32.596527 -116.680790 277 9001ft 257kts
03-Mar-18 13:04 32.609502 -116.750450 279 8972ft 204kts
03-Mar-18 13:05 32.635892 -116.795484 300 8658ft 184kts
03-Mar-18 13:06 32.666672 -116.845157 303 6960ft 217kts
03-Mar-18 13:07 32.678358 -116.911529 253 4961ft 226kts
03-Mar-18 13:08 32.682483 -116.979834 291 3800ft 203kts
03-Mar-18 13:09 32.713828 -117.027447 278 2504ft 184kts
03-Mar-18 13:10 32.713621 -117.086081 270 2276ft 167kts
03-Mar-18 13:11 32.721214 -117.137654 283 1203ft 147kts
03-Mar-18 13:12 32.730079 -117.175063 283 146ft 133kts
03-Mar-18 13:13 32.735230 -117.197804 252 13ft 12kts
03-Mar-18 13:14 32.734476 -117.197748 105 13ft 5kts
03-Mar-18 13:15 32.733982 -117.195686 106 15ft 13kts
03-Mar-18 13:16 32.733332 -117.192972 106 17ft 12kts
03-Mar-18 13:17 32.731292 -117.192169 114 14ft 3kts
03-Mar-18 13:18 32.730627 -117.190980 122 13ft 0kts
03-Mar-18 13:19 32.730627 -117.190980 122 13ft 0kts
03-Mar-18 13:20 32.730627 -117.190980 122 13ft 0kts

Navigation Log

Ident Type
Flight plan parsing failed, navigation log unavailable